Time;durP1;ratioP1;P1;durP2;ratioP2;P2;SDS_P1;SDS_P2;PMS_P1;PMS_P2;Temp;Humidity;BMP_temperature;BMP_pressure;BME280_temperature;BME280_humidity;BME280_pressure;Samples;Min_cycle;Max_cycle;Signal;HPM_P1;HPM_P2
2023/04/13 00:01:53;;;;;;;;;;;;;;;;;;5059005;28;5097;-63
2023/04/13 00:04:21;;;;;;;;;;;;;;;;;;5059430;28;1221;-63
2023/04/13 00:06:47;;;;;;;;;;;;;;;;;;5054630;28;5152;-62
2023/04/13 00:09:15;;;;;;;;;;;;;;;;;;5057292;28;5066;-62
2023/04/13 00:11:40;;;;;;;;;;;;;;;;;;5054270;28;4740;-64
2023/04/13 00:14:06;;;;;;;;;;;;;;;;;;5050277;28;4502;-64
2023/04/13 00:16:31;;;;;;;;;;;;;;;;;;5047622;28;4625;-64
2023/04/13 00:18:56;;;;;;;;;;;;;;;;;;5057682;28;1097;-64
2023/04/13 00:21:22;;;;;;;;;;;;;;;;;;5048537;28;4463;-63
2023/04/13 00:23:47;;;;;;;;;;;;;;;;;;5056122;28;5446;-64
2023/04/13 00:26:12;;;;;;;;;;;;;;;;;;5055184;28;4725;-63
2023/04/13 00:28:37;;;;;;;;;;;;;;;;;;5055868;28;4473;-63
2023/04/13 00:31:03;;;;;;;;;;;;;;;;;;5047063;28;1980;-63
2023/04/13 00:33:28;;;;;;;;;;;;;;;;;;5063557;28;4445;-63
2023/04/13 00:35:53;;;;;;;;;;;;;;;;;;5056345;28;5037;-63
2023/04/13 00:38:19;;;;;;;;;;;;;;;;;;5048572;28;4600;-63
2023/04/13 00:40:44;;;;;;;;;;;;;;;;;;5048652;28;4621;-63
2023/04/13 00:43:09;;;;;;;;;;;;;;;;;;5055306;28;1195;-65
2023/04/13 00:45:38;;;;;;;;;;;;;;;;;;5056329;28;4932;-64
2023/04/13 00:48:04;;;;;;;;;;;;;;;;;;5050912;28;4457;-63
2023/04/13 00:50:29;;;;;;;;;;;;;;;;;;5050285;28;4486;-66
2023/04/13 00:52:54;;;;;;;;;;;;;;;;;;5071316;28;4548;-63
2023/04/13 00:55:20;;;;;;;;;;;;;;;;;;5052220;28;3267;-65
2023/04/13 00:57:48;;;;;;;;;;;;;;;;;;5050204;28;4988;-65
2023/04/13 01:00:16;;;;;;;;;;;;;;;;;;5044454;28;4607;-64
2023/04/13 01:02:41;;;;;;;;;;;;;;;;;;5049985;28;5334;-65
2023/04/13 01:05:07;;;;;;;;;;;;;;;;;;5059924;28;5132;-64
2023/04/13 01:07:40;;;;;;;;;;;;;;;;;;5055763;27;4623;-63
2023/04/13 01:10:17;;;;;;;;;;;;;;;;;;5049481;28;3226;-61
2023/04/13 01:12:58;;;;;;;;;;;;;;;;;;5050155;28;5136;-64
2023/04/13 01:15:24;;;;;;;;;;;;;;;;;;5075720;28;5143;-64
2023/04/13 01:18:06;;;;;;;;;;;;;;;;;;5049571;28;5014;-64
2023/04/13 01:20:31;;;;;;;;;;;;;;;;;;5050736;28;4700;-64
2023/04/13 01:22:56;;;;;;;;;;;;;;;;;;5079988;28;4982;-64
2023/04/13 01:25:29;;;;;;;;;;;;;;;;;;5052766;28;4583;-64
2023/04/13 01:27:57;;;;;;;;;;;;;;;;;;5055957;28;5122;-64
2023/04/13 01:30:24;;;;;;;;;;;;;;;;;;5050249;28;4466;-64
2023/04/13 01:32:53;;;;;;;;;;;;;;;;;;5055473;28;5072;-63
2023/04/13 01:35:18;;;;;;;;;;;;;;;;;;5055122;28;4803;-64
2023/04/13 01:37:44;;;;;;;;;;;;;;;;;;5057432;28;4540;-63
2023/04/13 01:40:11;;;;;;;;;;;;;;;;;;5040811;28;3124;-64
2023/04/13 01:42:40;;;;;;;;;;;;;;;;;;5050126;28;4659;-64
2023/04/13 01:45:09;;;;;;;;;;;;;;;;;;5071778;28;5216;-63
2023/04/13 01:47:34;;;;;;;;;;;;;;;;;;5054064;28;5052;-64
2023/04/13 01:50:02;;;;;;;;;;;;;;;;;;5045051;28;4886;-64
2023/04/13 01:52:28;;;;;;;;;;;;;;;;;;5058757;28;5071;-64
2023/04/13 01:54:55;;;;;;;;;;;;;;;;;;5054704;28;1140;-65
2023/04/13 01:57:21;;;;;;;;;;;;;;;;;;5053251;28;4821;-64
2023/04/13 01:59:46;;;;;;;;;;;;;;;;;;5058293;28;5638;-63
2023/04/13 02:02:15;;;;;;;;;;;;;;;;;;5057091;28;4510;-64
2023/04/13 02:04:40;;;;;;;;;;;;;;;;;;5052552;28;4482;-63
2023/04/13 02:07:05;;;;;;;;;;;;;;;;;;5047456;28;3277;-64
2023/04/13 02:09:31;;;;;;;;;;;;;;;;;;5051095;28;5022;-63
2023/04/13 02:11:56;;;;;;;;;;;;;;;;;;5053407;28;4521;-63
2023/04/13 02:14:21;;;;;;;;;;;;;;;;;;5063389;28;4613;-63
2023/04/13 02:16:47;;;;;;;;;;;;;;;;;;5053991;28;4596;-63
2023/04/13 02:19:13;;;;;;;;;;;;;;;;;;5049774;28;1176;-64
2023/04/13 02:21:40;;;;;;;;;;;;;;;;;;5042701;28;4478;-67
2023/04/13 02:24:06;;;;;;;;;;;;;;;;;;5046431;28;5354;-64
2023/04/13 02:26:32;;;;;;;;;;;;;;;;;;5048138;28;4562;-63
2023/04/13 02:28:57;;;;;;;;;;;;;;;;;;5048865;28;4445;-64
2023/04/13 02:31:23;;;;;;;;;;;;;;;;;;5057220;28;3392;-65
2023/04/13 02:33:48;;;;;;;;;;;;;;;;;;5047971;28;5038;-63
2023/04/13 02:36:16;;;;;;;;;;;;;;;;;;5049229;28;4507;-63
2023/04/13 02:38:42;;;;;;;;;;;;;;;;;;5048785;28;5180;-64
2023/04/13 02:41:07;;;;;;;;;;;;;;;;;;5030998;28;5023;-66
2023/04/13 02:43:33;;;;;;;;;;;;;;;;;;5048112;28;4641;-64
2023/04/13 02:45:58;;;;;;;;;;;;;;;;;;5032774;28;3431;-65
2023/04/13 02:48:24;;;;;;;;;;;;;;;;;;5048362;28;4481;-64
2023/04/13 02:50:50;;;;;;;;;;;;;;;;;;5048645;28;5009;-64
2023/04/13 02:53:16;;;;;;;;;;;;;;;;;;5058834;28;5070;-64
2023/04/13 02:55:42;;;;;;;;;;;;;;;;;;5048900;28;4973;-64
2023/04/13 02:58:07;;;;;;;;;;;;;;;;;;5049708;28;3299;-63
2023/04/13 03:00:32;;;;;;;;;;;;;;;;;;5048346;28;4452;-63
2023/04/13 03:02:58;;;;;;;;;;;;;;;;;;5049748;28;4496;-64
2023/04/13 03:05:23;;;;;;;;;;;;;;;;;;5048113;28;4751;-65
2023/04/13 03:07:48;;;;;;;;;;;;;;;;;;5048355;28;4928;-65
2023/04/13 03:10:13;;;;;;;;;;;;;;;;;;5048276;28;3228;-65
2023/04/13 03:12:39;;;;;;;;;;;;;;;;;;5049267;28;4880;-68
2023/04/13 03:15:07;;;;;;;;;;;;;;;;;;5055872;28;4970;-65
2023/04/13 03:17:32;;;;;;;;;;;;;;;;;;5046327;28;4638;-65
2023/04/13 03:19:57;;;;;;;;;;;;;;;;;;5053356;28;4648;-65
2023/04/13 03:22:23;;;;;;;;;;;;;;;;;;5052257;28;3454;-65
2023/04/13 03:24:48;;;;;;;;;;;;;;;;;;5053584;28;4607;-64
2023/04/13 03:27:13;;;;;;;;;;;;;;;;;;5057064;28;4573;-64
2023/04/13 03:29:38;;;;;;;;;;;;;;;;;;5055750;28;5246;-64
2023/04/13 03:32:04;;;;;;;;;;;;;;;;;;5051470;28;4671;-65
2023/04/13 03:34:29;;;;;;;;;;;;;;;;;;5041339;28;4482;-64
2023/04/13 03:36:55;;;;;;;;;;;;;;;;;;5058620;28;3232;-64
2023/04/13 03:39:20;;;;;;;;;;;;;;;;;;5053762;28;4603;-65
2023/04/13 03:41:45;;;;;;;;;;;;;;;;;;5040923;28;4653;-67
2023/04/13 03:44:11;;;;;;;;;;;;;;;;;;5039462;28;4546;-68
2023/04/13 03:46:36;;;;;;;;;;;;;;;;;;5047806;28;5049;-65
2023/04/13 03:49:08;;;;;;;;;;;;;;;;;;5090341;28;1191;-64
2023/04/13 03:51:34;;;;;;;;;;;;;;;;;;5054255;28;4471;-65
2023/04/13 03:53:59;;;;;;;;;;;;;;;;;;5055665;28;5064;-65
2023/04/13 03:56:25;;;;;;;;;;;;;;;;;;5052618;28;4462;-66
2023/04/13 03:58:50;;;;;;;;;;;;;;;;;;5048497;28;5079;-65
2023/04/13 04:01:16;;;;;;;;;;;;;;;;;;5061494;28;1348;-65
2023/04/13 04:03:41;;;;;;;;;;;;;;;;;;5049385;28;4692;-66
2023/04/13 04:06:06;;;;;;;;;;;;;;;;;;5057441;28;5064;-65
2023/04/13 04:08:32;;;;;;;;;;;;;;;;;;5050791;28;4633;-67
2023/04/13 04:10:57;;;;;;;;;;;;;;;;;;5055885;28;5039;-66
2023/04/13 04:13:22;;;;;;;;;;;;;;;;;;5053627;28;1245;-64
2023/04/13 04:15:48;;;;;;;;;;;;;;;;;;5053743;28;4423;-65
2023/04/13 04:18:13;;;;;;;;;;;;;;;;;;5055277;28;4436;-65
2023/04/13 04:20:38;;;;;;;;;;;;;;;;;;5061666;28;5051;-63
2023/04/13 04:23:04;;;;;;;;;;;;;;;;;;5063233;28;5297;-64
2023/04/13 04:25:30;;;;;;;;;;;;;;;;;;5058998;28;4732;-65
2023/04/13 04:28:01;;;;;;;;;;;;;;;;;;5028642;28;1198;-65
2023/04/13 04:30:28;;;;;;;;;;;;;;;;;;5043781;28;4383;-65
2023/04/13 04:32:54;;;;;;;;;;;;;;;;;;5060235;28;5386;-65
2023/04/13 04:35:31;;;;;;;;;;;;;;;;;;5060023;28;4474;-63
2023/04/13 04:37:57;;;;;;;;;;;;;;;;;;5060259;28;4640;-64
2023/04/13 04:40:22;;;;;;;;;;;;;;;;;;5070230;28;1311;-65
2023/04/13 04:42:47;;;;;;;;;;;;;;;;;;5051489;28;4428;-66
2023/04/13 04:45:13;;;;;;;;;;;;;;;;;;5046970;28;4781;-64
2023/04/13 04:47:42;;;;;;;;;;;;;;;;;;5051897;28;4495;-65
2023/04/13 04:50:11;;;;;;;;;;;;;;;;;;5058058;28;4634;-65
2023/04/13 04:52:36;;;;;;;;;;;;;;;;;;5049982;28;5037;-64
2023/04/13 04:55:02;;;;;;;;;;;;;;;;;;5057514;28;1354;-66
2023/04/13 04:57:27;;;;;;;;;;;;;;;;;;5051829;28;4693;-65
2023/04/13 04:59:52;;;;;;;;;;;;;;;;;;5050302;28;5084;-64
2023/04/13 05:02:18;;;;;;;;;;;;;;;;;;5052417;28;4971;-66
2023/04/13 05:04:43;;;;;;;;;;;;;;;;;;5057934;28;4661;-65
2023/04/13 05:07:09;;;;;;;;;;;;;;;;;;5050338;28;1106;-64
2023/04/13 05:09:36;;;;;;;;;;;;;;;;;;5053437;28;4490;-65
2023/04/13 05:12:01;;;;;;;;;;;;;;;;;;5053835;28;4589;-65
2023/04/13 05:14:26;;;;;;;;;;;;;;;;;;5051107;28;4636;-66
2023/04/13 05:16:52;;;;;;;;;;;;;;;;;;5050503;28;4656;-66
2023/04/13 05:19:17;;;;;;;;;;;;;;;;;;5053201;28;2171;-64
2023/04/13 05:21:42;;;;;;;;;;;;;;;;;;5050374;28;4619;-64
2023/04/13 05:24:10;;;;;;;;;;;;;;;;;;5056164;28;4487;-64
2023/04/13 05:26:35;;;;;;;;;;;;;;;;;;5047647;28;4915;-65
2023/04/13 05:29:01;;;;;;;;;;;;;;;;;;5056778;28;4679;-66
2023/04/13 05:31:27;;;;;;;;;;;;;;;;;;5050893;28;1921;-66
2023/04/13 05:33:52;;;;;;;;;;;;;;;;;;5056479;28;4977;-65
2023/04/13 05:36:18;;;;;;;;;;;;;;;;;;5048955;28;4646;-64
2023/04/13 05:38:43;;;;;;;;;;;;;;;;;;5044358;28;4509;-65
2023/04/13 05:41:09;;;;;;;;;;;;;;;;;;5047816;28;4503;-64
2023/04/13 05:43:34;;;;;;;;;;;;;;;;;;5046986;28;4520;-65
2023/04/13 05:45:59;;;;;;;;;;;;;;;;;;5075101;28;3350;-66
2023/04/13 05:48:25;;;;;;;;;;;;;;;;;;5043865;28;4710;-64
2023/04/13 05:50:54;;;;;;;;;;;;;;;;;;5084527;28;4689;-63
2023/04/13 05:53:20;;;;;;;;;;;;;;;;;;5057060;28;5548;-64
2023/04/13 05:55:45;;;;;;;;;;;;;;;;;;5048282;28;5111;-67
2023/04/13 05:58:11;;;;;;;;;;;;;;;;;;5062536;28;3180;-66
2023/04/13 06:00:37;;;;;;;;;;;;;;;;;;5065389;28;4668;-66
2023/04/13 06:03:02;;;;;;;;;;;;;;;;;;5046704;28;4680;-66
2023/04/13 06:05:28;;;;;;;;;;;;;;;;;;5082684;28;4668;-66
2023/04/13 06:07:53;;;;;;;;;;;;;;;;;;5047817;28;5040;-66
2023/04/13 06:10:18;;;;;;;;;;;;;;;;;;5048593;28;1975;-66
2023/04/13 06:12:47;;;;;;;;;;;;;;;;;;5054062;28;4619;-66
2023/04/13 06:15:12;;;;;;;;;;;;;;;;;;5047402;28;5201;-67
2023/04/13 06:17:37;;;;;;;;;;;;;;;;;;5053196;28;4653;-66
2023/04/13 06:20:05;;;;;;;;;;;;;;;;;;5054863;28;4649;-66
2023/04/13 06:22:31;;;;;;;;;;;;;;;;;;5055414;28;4495;-66
2023/04/13 06:24:56;;;;;;;;;;;;;;;;;;5048567;28;4669;-66
2023/04/13 06:27:21;;;;;;;;;;;;;;;;;;5057544;28;4990;-66
2023/04/13 06:29:47;;;;;;;;;;;;;;;;;;5050530;28;4535;-67
2023/04/13 06:32:12;;;;;;;;;;;;;;;;;;5053261;28;5165;-67
2023/04/13 06:34:37;;;;;;;;;;;;;;;;;;5045489;28;4476;-66
2023/04/13 06:37:03;;;;;;;;;;;;;;;;;;5050729;28;1179;-67
2023/04/13 06:39:28;;;;;;;;;;;;;;;;;;5054972;28;4455;-66
2023/04/13 06:41:53;;;;;;;;;;;;;;;;;;5053961;28;4714;-66
2023/04/13 06:44:18;;;;;;;;;;;;;;;;;;5038723;28;5064;-67
2023/04/13 06:46:44;;;;;;;;;;;;;;;;;;5051185;28;4463;-67
2023/04/13 06:49:09;;;;;;;;;;;;;;;;;;5047406;28;3382;-67
2023/04/13 06:51:34;;;;;;;;;;;;;;;;;;5057545;28;4588;-67
2023/04/13 06:54:00;;;;;;;;;;;;;;;;;;5047293;28;5085;-67
2023/04/13 06:56:25;;;;;;;;;;;;;;;;;;5058305;28;4656;-68
2023/04/13 06:58:50;;;;;;;;;;;;;;;;;;5048321;28;4527;-68
2023/04/13 07:01:16;;;;;;;;;;;;;;;;;;5055190;28;1270;-65
2023/04/13 07:03:42;;;;;;;;;;;;;;;;;;5044488;28;4883;-65
2023/04/13 07:06:07;;;;;;;;;;;;;;;;;;5051268;28;4602;-63
2023/04/13 07:08:33;;;;;;;;;;;;;;;;;;5047496;28;4646;-66
2023/04/13 07:10:58;;;;;;;;;;;;;;;;;;5046962;28;4954;-61
2023/04/13 07:13:24;;;;;;;;;;;;;;;;;;5055352;28;2130;-61
2023/04/13 07:15:49;;;;;;;;;;;;;;;;;;5061348;28;4719;-62
2023/04/13 07:18:15;;;;;;;;;;;;;;;;;;5047408;28;4591;-62
2023/04/13 07:20:40;;;;;;;;;;;;;;;;;;5059027;28;5102;-64
2023/04/13 07:23:06;;;;;;;;;;;;;;;;;;5049570;28;4475;-62
2023/04/13 07:25:33;;;;;;;;;;;;;;;;;;5047649;28;4976;-62
2023/04/13 07:27:58;;;;;;;;;;;;;;;;;;5052532;28;1148;-62
2023/04/13 07:30:23;;;;;;;;;;;;;;;;;;5053191;28;4747;-61
2023/04/13 07:32:49;;;;;;;;;;;;;;;;;;5056831;28;5036;-62
2023/04/13 07:35:14;;;;;;;;;;;;;;;;;;5043691;28;4605;-62
2023/04/13 07:37:41;;;;;;;;;;;;;;;;;;5036700;28;5046;-61
2023/04/13 07:40:10;;;;;;;;;;;;;;;;;;5064551;28;1219;-62
2023/04/13 07:42:35;;;;;;;;;;;;;;;;;;5052698;28;5073;-62
2023/04/13 07:45:01;;;;;;;;;;;;;;;;;;5048459;28;5027;-63
2023/04/13 07:47:26;;;;;;;;;;;;;;;;;;5054746;28;4514;-62
2023/04/13 07:49:52;;;;;;;;;;;;;;;;;;5057685;28;4680;-62
2023/04/13 07:52:18;;;;;;;;;;;;;;;;;;5051744;28;1335;-63
2023/04/13 07:54:43;;;;;;;;;;;;;;;;;;5055352;28;4588;-62
2023/04/13 07:57:09;;;;;;;;;;;;;;;;;;5046273;28;4984;-63
2023/04/13 07:59:34;;;;;;;;;;;;;;;;;;5050348;28;4638;-61
2023/04/13 08:01:59;;;;;;;;;;;;;;;;;;5050756;28;4426;-63
2023/04/13 08:04:25;;;;;;;;;;;;;;;;;;5073381;28;1108;-62
2023/04/13 08:06:50;;;;;;;;;;;;;;;;;;5049585;28;4407;-63
2023/04/13 08:09:16;;;;;;;;;;;;;;;;;;5050370;28;5049;-63
2023/04/13 08:11:41;;;;;;;;;;;;;;;;;;5050176;28;4820;-61
2023/04/13 08:14:08;;;;;;;;;;;;;;;;;;5048635;28;5187;-63
2023/04/13 08:16:34;;;;;;;;;;;;;;;;;;5043493;28;5230;-64
2023/04/13 08:19:02;;;;;;;;;;;;;;;;;;5049539;28;1075;-63
2023/04/13 08:21:28;;;;;;;;;;;;;;;;;;5050144;28;5021;-62
2023/04/13 08:23:53;;;;;;;;;;;;;;;;;;5049120;28;4464;-63
2023/04/13 08:26:19;;;;;;;;;;;;;;;;;;5040916;28;4877;-63
2023/04/13 08:28:47;;;;;;;;;;;;;;;;;;5050311;28;4596;-63
2023/04/13 08:31:12;;;;;;;;;;;;;;;;;;5049361;28;1975;-62
2023/04/13 08:33:37;;;;;;;;;;;;;;;;;;5037760;28;4520;-62
2023/04/13 08:36:03;;;;;;;;;;;;;;;;;;5042993;28;4940;-62
2023/04/13 08:38:28;;;;;;;;;;;;;;;;;;5050122;28;4639;-63
2023/04/13 08:40:53;;;;;;;;;;;;;;;;;;5047760;28;4641;-63
2023/04/13 08:43:19;;;;;;;;;;;;;;;;;;5050307;28;1379;-63
2023/04/13 08:45:44;;;;;;;;;;;;;;;;;;5044627;28;4955;-62
2023/04/13 08:48:10;;;;;;;;;;;;;;;;;;5049299;28;4640;-62
2023/04/13 08:50:35;;;;;;;;;;;;;;;;;;5046862;28;4671;-63
2023/04/13 08:53:02;;;;;;;;;;;;;;;;;;5050174;28;4523;-62
2023/04/13 08:55:28;;;;;;;;;;;;;;;;;;5050623;28;1252;-61
2023/04/13 08:57:53;;;;;;;;;;;;;;;;;;5049851;28;5060;-61
2023/04/13 09:00:20;;;;;;;;;;;;;;;;;;5043575;28;4486;-60
2023/04/13 09:02:47;;;;;;;;;;;;;;;;;;5049762;28;4696;-62
2023/04/13 09:05:14;;;;;;;;;;;;;;;;;;5049360;28;4612;-61
2023/04/13 09:07:40;;;;;;;;;;;;;;;;;;5045112;28;4561;-62
2023/04/13 09:10:06;;;;;;;;;;;;;;;;;;5049685;28;1955;-62
2023/04/13 09:12:32;;;;;;;;;;;;;;;;;;5048813;28;4972;-61
2023/04/13 09:14:58;;;;;;;;;;;;;;;;;;5043292;28;4625;-61
2023/04/13 09:17:26;;;;;;;;;;;;;;;;;;5045477;28;4651;-62
2023/04/13 09:19:52;;;;;;;;;;;;;;;;;;5047915;28;4442;-61
2023/04/13 09:22:17;;;;;;;;;;;;;;;;;;5048208;28;3415;-61
2023/04/13 09:24:42;;;;;;;;;;;;;;;;;;5045233;28;4614;-63
2023/04/13 09:27:20;;;;;;;;;;;;;;;;;;5045932;28;5642;-61
2023/04/13 09:29:52;;;;;;;;;;;;;;;;;;5049941;28;5066;-66
2023/04/13 09:32:18;;;;;;;;;;;;;;;;;;5045869;28;4559;-65
2023/04/13 09:34:43;;;;;;;;;;;;;;;;;;5041881;28;4665;-64
2023/04/13 09:37:12;;;;;;;;;;;;;;;;;;5052942;28;3332;-64
2023/04/13 09:39:37;;;;;;;;;;;;;;;;;;5036812;28;4712;-64
2023/04/13 09:42:08;;;;;;;;;;;;;;;;;;5045071;28;5017;-61
2023/04/13 09:44:34;;;;;;;;;;;;;;;;;;5045454;28;4463;-68
2023/04/13 09:47:00;;;;;;;;;;;;;;;;;;5042484;28;4484;-71
2023/04/13 09:49:35;;;;;;;;;;;;;;;;;;5049317;28;3212;-72
2023/04/13 09:52:00;;;;;;;;;;;;;;;;;;5048343;28;4358;-70
2023/04/13 09:54:26;;;;;;;;;;;;;;;;;;5038226;28;4620;-70
2023/04/13 09:56:51;;;;;;;;;;;;;;;;;;5077347;28;4543;-70
2023/04/13 09:59:21;;;;;;;;;;;;;;;;;;5048323;28;4452;-71
2023/04/13 10:01:46;;;;;;;;;;;;;;;;;;5046378;28;5161;-72
2023/04/13 10:04:12;;;;;;;;;;;;;;;;;;5049127;28;2217;-70
2023/04/13 10:06:38;;;;;;;;;;;;;;;;;;5046772;28;4440;-70
2023/04/13 10:09:04;;;;;;;;;;;;;;;;;;5040449;28;4663;-70
2023/04/13 10:11:29;;;;;;;;;;;;;;;;;;5041737;28;4474;-70
2023/04/13 10:13:55;;;;;;;;;;;;;;;;;;5048333;28;4514;-70
2023/04/13 10:16:25;;;;;;;;;;;;;;;;;;5074499;28;1542;-72
2023/04/13 10:18:58;;;;;;;;;;;;;;;;;;5068940;28;4904;-71
2023/04/13 10:21:25;;;;;;;;;;;;;;;;;;5044605;28;4766;-70
2023/04/13 10:23:50;;;;;;;;;;;;;;;;;;5066418;28;4972;-72
2023/04/13 10:26:16;;;;;;;;;;;;;;;;;;5047814;28;4857;-71
2023/04/13 10:28:42;;;;;;;;;;;;;;;;;;5045392;28;4454;-71
2023/04/13 10:31:08;;;;;;;;;;;;;;;;;;5080753;28;1967;-71
2023/04/13 10:33:33;;;;;;;;;;;;;;;;;;5053686;28;5063;-73
2023/04/13 10:35:58;;;;;;;;;;;;;;;;;;5052825;28;5029;-70
2023/04/13 10:38:24;;;;;;;;;;;;;;;;;;5035150;28;5008;-70
2023/04/13 10:40:49;;;;;;;;;;;;;;;;;;5048254;28;5073;-71
2023/04/13 10:43:25;;;;;;;;;;;;;;;;;;5048902;28;1159;-71
2023/04/13 10:46:03;;;;;;;;;;;;;;;;;;5046056;28;4664;-69
2023/04/13 10:48:28;;;;;;;;;;;;;;;;;;5045091;28;5081;-70
2023/04/13 10:50:57;;;;;;;;;;;;;;;;;;5040301;28;5160;-70
2023/04/13 10:53:23;;;;;;;;;;;;;;;;;;5048041;28;4468;-71
2023/04/13 10:55:49;;;;;;;;;;;;;;;;;;5042755;28;4619;-70
2023/04/13 10:58:15;;;;;;;;;;;;;;;;;;5048846;28;1268;-70
2023/04/13 11:00:42;;;;;;;;;;;;;;;;;;5079900;28;4808;-71
2023/04/13 11:03:08;;;;;;;;;;;;;;;;;;5041713;28;4439;-71
2023/04/13 11:05:33;;;;;;;;;;;;;;;;;;5027371;28;4605;-70
2023/04/13 11:07:58;;;;;;;;;;;;;;;;;;5027714;28;4618;-72
2023/04/13 11:10:25;;;;;;;;;;;;;;;;;;5028421;28;1977;-70
2023/04/13 11:12:50;;;;;;;;;;;;;;;;;;5047463;28;4836;-70
2023/04/13 11:15:22;;;;;;;;;;;;;;;;;;5042736;28;5127;-71
2023/04/13 11:17:54;;;;;;;;;;;;;;;;;;5044019;28;4792;-70
2023/04/13 11:20:31;;;;;;;;;;;;;;;;;;5047893;28;4871;-73
2023/04/13 11:22:56;;;;;;;;;;;;;;;;;;5043604;28;5042;-70
2023/04/13 11:25:22;;;;;;;;;;;;;;;;;;5044674;28;4597;-70
2023/04/13 11:27:53;;;;;;;;;;;;;;;;;;5047047;28;5009;-71
2023/04/13 11:30:20;;;;;;;;;;;;;;;;;;5045808;28;4436;-71
2023/04/13 11:32:47;;;;;;;;;;;;;;;;;;5037290;28;4645;-71
2023/04/13 11:35:13;;;;;;;;;;;;;;;;;;5047566;28;4960;-71
2023/04/13 11:37:39;;;;;;;;;;;;;;;;;;5046703;28;5148;-70
2023/04/13 11:40:30;;;;;;;;;;;;;;;;;;5045031;28;3085;-68
2023/04/13 11:42:54;;;;;;;;;;;;;;;;;;5039118;28;4548;-69
2023/04/13 11:45:24;;;;;;;;;;;;;;;;;;5039098;28;4989;-69
2023/04/13 11:47:49;;;;;;;;;;;;;;;;;;5041835;28;4487;-69
2023/04/13 11:50:16;;;;;;;;;;;;;;;;;;5047234;28;4925;-70
2023/04/13 11:52:42;;;;;;;;;;;;;;;;;;5076576;28;4678;-70
2023/04/13 11:55:08;;;;;;;;;;;;;;;;;;5047177;28;2416;-71
2023/04/13 11:57:33;;;;;;;;;;;;;;;;;;5042583;28;4643;-70
2023/04/13 11:59:59;;;;;;;;;;;;;;;;;;5036706;28;5227;-72
2023/04/13 12:02:32;;;;;;;;;;;;;;;;;;5047425;28;4495;-70
2023/04/13 12:04:58;;;;;;;;;;;;;;;;;;5044203;28;5097;-70
2023/04/13 12:07:26;;;;;;;;;;;;;;;;;;5045225;28;3256;-70
2023/04/13 12:09:52;;;;;;;;;;;;;;;;;;5049041;28;4417;-71
2023/04/13 12:12:18;;;;;;;;;;;;;;;;;;5050365;28;4469;-70
2023/04/13 12:15:03;;;;;;;;;;;;;;;;;;5039188;28;4888;-71
2023/04/13 12:17:32;;;;;;;;;;;;;;;;;;5040416;28;4628;-72
2023/04/13 12:19:58;;;;;;;;;;;;;;;;;;5049438;28;4982;-69
2023/04/13 12:22:23;;;;;;;;;;;;;;;;;;5050802;28;1136;-68
2023/04/13 12:24:49;;;;;;;;;;;;;;;;;;5074448;28;4962;-69
2023/04/13 12:27:16;;;;;;;;;;;;;;;;;;5046521;28;5006;-68
2023/04/13 12:29:41;;;;;;;;;;;;;;;;;;5041022;28;4857;-69
2023/04/13 12:32:12;;;;;;;;;;;;;;;;;;5050274;28;5008;-69
2023/04/13 12:34:38;;;;;;;;;;;;;;;;;;5045882;28;5023;-68
2023/04/13 12:37:03;;;;;;;;;;;;;;;;;;5048015;28;1184;-69
2023/04/13 12:39:28;;;;;;;;;;;;;;;;;;5050127;28;4964;-68
2023/04/13 12:41:54;;;;;;;;;;;;;;;;;;5043182;28;4426;-69
2023/04/13 12:44:19;;;;;;;;;;;;;;;;;;5036900;28;4743;-71
2023/04/13 12:46:45;;;;;;;;;;;;;;;;;;5044595;28;4468;-71
2023/04/13 12:49:10;;;;;;;;;;;;;;;;;;5050415;28;1281;-70
2023/04/13 12:51:35;;;;;;;;;;;;;;;;;;5079078;28;4810;-71
2023/04/13 12:54:01;;;;;;;;;;;;;;;;;;5045367;28;4466;-70
2023/04/13 12:56:26;;;;;;;;;;;;;;;;;;5041847;28;4981;-69
2023/04/13 12:58:51;;;;;;;;;;;;;;;;;;5050116;28;4460;-69
2023/04/13 13:01:16;;;;;;;;;;;;;;;;;;5049136;28;1111;-69
2023/04/13 13:03:43;;;;;;;;;;;;;;;;;;5048126;28;5104;-71
2023/04/13 13:06:09;;;;;;;;;;;;;;;;;;5049952;28;5005;-70
2023/04/13 13:08:34;;;;;;;;;;;;;;;;;;5049580;28;4438;-70
2023/04/13 13:11:00;;;;;;;;;;;;;;;;;;5045762;28;5054;-71
2023/04/13 13:13:25;;;;;;;;;;;;;;;;;;5050078;28;1199;-70
2023/04/13 13:15:50;;;;;;;;;;;;;;;;;;5047085;28;4437;-71
2023/04/13 13:18:15;;;;;;;;;;;;;;;;;;5047785;28;5098;-71
2023/04/13 13:20:41;;;;;;;;;;;;;;;;;;5045957;28;4472;-75
2023/04/13 13:23:10;;;;;;;;;;;;;;;;;;5049435;28;4970;-71
2023/04/13 13:25:35;;;;;;;;;;;;;;;;;;5044423;28;4798;-71
2023/04/13 13:28:06;;;;;;;;;;;;;;;;;;5049367;28;1267;-71
2023/04/13 13:30:32;;;;;;;;;;;;;;;;;;5031181;28;5034;-70
2023/04/13 13:32:57;;;;;;;;;;;;;;;;;;5048957;28;4676;-71
2023/04/13 13:35:22;;;;;;;;;;;;;;;;;;5049508;28;4426;-71
2023/04/13 13:37:48;;;;;;;;;;;;;;;;;;5044032;28;5583;-70
2023/04/13 13:40:13;;;;;;;;;;;;;;;;;;5041596;28;1346;-70
2023/04/13 13:42:39;;;;;;;;;;;;;;;;;;5047917;28;5125;-70
2023/04/13 13:45:05;;;;;;;;;;;;;;;;;;5044428;28;5059;-70
2023/04/13 13:47:30;;;;;;;;;;;;;;;;;;5045718;28;4659;-71
2023/04/13 13:49:55;;;;;;;;;;;;;;;;;;5047359;28;4656;-70
2023/04/13 13:52:20;;;;;;;;;;;;;;;;;;5046422;28;1898;-70
2023/04/13 13:54:46;;;;;;;;;;;;;;;;;;5045926;28;4519;-71
2023/04/13 13:57:11;;;;;;;;;;;;;;;;;;5042321;28;4525;-70
2023/04/13 13:59:36;;;;;;;;;;;;;;;;;;5048392;28;4931;-69
2023/04/13 14:02:02;;;;;;;;;;;;;;;;;;5048554;28;4519;-70
2023/04/13 14:04:27;;;;;;;;;;;;;;;;;;5046544;28;985;-71
2023/04/13 14:06:52;;;;;;;;;;;;;;;;;;5043971;28;4933;-71
2023/04/13 14:09:18;;;;;;;;;;;;;;;;;;5046410;28;4480;-71
2023/04/13 14:11:43;;;;;;;;;;;;;;;;;;5042097;28;5029;-70
2023/04/13 14:14:08;;;;;;;;;;;;;;;;;;5042976;28;4569;-70
2023/04/13 14:16:33;;;;;;;;;;;;;;;;;;5041010;28;4654;-70
2023/04/13 14:18:59;;;;;;;;;;;;;;;;;;5042832;28;3268;-70
2023/04/13 14:21:25;;;;;;;;;;;;;;;;;;5015469;28;4484;-72
2023/04/13 14:23:50;;;;;;;;;;;;;;;;;;5041014;28;4714;-72
2023/04/13 14:26:16;;;;;;;;;;;;;;;;;;5040644;28;4581;-70
2023/04/13 14:28:41;;;;;;;;;;;;;;;;;;5032170;28;4688;-74
2023/04/13 14:31:07;;;;;;;;;;;;;;;;;;5050509;28;3273;-71
2023/04/13 14:33:33;;;;;;;;;;;;;;;;;;5049459;28;5127;-71
2023/04/13 14:35:58;;;;;;;;;;;;;;;;;;5044386;28;4636;-69
2023/04/13 14:38:23;;;;;;;;;;;;;;;;;;5047933;28;4409;-70
2023/04/13 14:40:49;;;;;;;;;;;;;;;;;;5041628;28;4534;-69
2023/04/13 14:43:15;;;;;;;;;;;;;;;;;;5041008;28;3318;-69
2023/04/13 14:45:40;;;;;;;;;;;;;;;;;;5054910;28;4730;-69
2023/04/13 14:48:06;;;;;;;;;;;;;;;;;;5047677;28;4998;-68
2023/04/13 14:50:31;;;;;;;;;;;;;;;;;;5038745;28;5046;-71
2023/04/13 14:52:57;;;;;;;;;;;;;;;;;;5046518;28;4520;-70
2023/04/13 14:55:23;;;;;;;;;;;;;;;;;;5047099;28;3288;-68
2023/04/13 14:57:48;;;;;;;;;;;;;;;;;;5035970;28;4486;-71
2023/04/13 15:00:20;;;;;;;;;;;;;;;;;;5043142;28;5065;-73
2023/04/13 15:02:49;;;;;;;;;;;;;;;;;;5036341;28;5152;-70
2023/04/13 15:05:14;;;;;;;;;;;;;;;;;;5044031;28;4650;-69
2023/04/13 15:07:41;;;;;;;;;;;;;;;;;;5045157;28;4646;-70
2023/04/13 15:10:07;;;;;;;;;;;;;;;;;;5045501;28;2306;-68
2023/04/13 15:12:32;;;;;;;;;;;;;;;;;;5044268;28;5077;-67
2023/04/13 15:14:57;;;;;;;;;;;;;;;;;;5038146;28;5732;-65
2023/04/13 15:17:23;;;;;;;;;;;;;;;;;;5033999;28;4692;-65
2023/04/13 15:19:48;;;;;;;;;;;;;;;;;;5031241;28;4582;-64
2023/04/13 15:22:13;;;;;;;;;;;;;;;;;;5031876;28;1545;-65
2023/04/13 15:24:39;;;;;;;;;;;;;;;;;;5030155;28;4695;-74
2023/04/13 15:27:04;;;;;;;;;;;;;;;;;;5035851;28;5003;-72
2023/04/13 15:29:30;;;;;;;;;;;;;;;;;;5035839;28;4716;-72
2023/04/13 15:31:55;;;;;;;;;;;;;;;;;;5032850;28;4550;-71
2023/04/13 15:34:20;;;;;;;;;;;;;;;;;;5051311;28;3546;-75
2023/04/13 15:36:46;;;;;;;;;;;;;;;;;;5038073;28;5006;-72
2023/04/13 15:39:11;;;;;;;;;;;;;;;;;;5038272;28;4605;-72
2023/04/13 15:41:37;;;;;;;;;;;;;;;;;;5047244;28;5206;-76
2023/04/13 15:44:02;;;;;;;;;;;;;;;;;;5045586;28;4608;-75
2023/04/13 15:46:27;;;;;;;;;;;;;;;;;;5046562;28;1516;-72
2023/04/13 15:48:53;;;;;;;;;;;;;;;;;;5048440;28;4888;-73
2023/04/13 15:51:19;;;;;;;;;;;;;;;;;;5049564;28;4590;-69
2023/04/13 15:53:44;;;;;;;;;;;;;;;;;;5046139;28;4492;-74
2023/04/13 15:56:09;;;;;;;;;;;;;;;;;;5048323;28;4692;-71
2023/04/13 15:58:35;;;;;;;;;;;;;;;;;;5043497;28;4641;-70
2023/04/13 16:01:02;;;;;;;;;;;;;;;;;;5049091;28;2274;-70
2023/04/13 16:03:27;;;;;;;;;;;;;;;;;;5044263;28;4531;-73
2023/04/13 16:05:53;;;;;;;;;;;;;;;;;;5046966;28;4476;-71
2023/04/13 16:08:18;;;;;;;;;;;;;;;;;;5036792;28;4847;-72
2023/04/13 16:10:44;;;;;;;;;;;;;;;;;;5042595;28;4514;-71
2023/04/13 16:13:17;;;;;;;;;;;;;;;;;;5044170;28;3387;-73
2023/04/13 16:15:46;;;;;;;;;;;;;;;;;;5043263;28;4384;-71
2023/04/13 16:18:11;;;;;;;;;;;;;;;;;;5052984;28;4906;-73
2023/04/13 16:20:36;;;;;;;;;;;;;;;;;;5042949;28;4811;-75
2023/04/13 16:23:03;;;;;;;;;;;;;;;;;;5048262;28;4644;-72
2023/04/13 16:25:29;;;;;;;;;;;;;;;;;;5048787;28;4955;-72
2023/04/13 16:27:55;;;;;;;;;;;;;;;;;;5052876;28;3411;-71
2023/04/13 16:30:21;;;;;;;;;;;;;;;;;;5040254;28;4453;-70
2023/04/13 16:32:46;;;;;;;;;;;;;;;;;;5044372;28;4714;-69
2023/04/13 16:35:12;;;;;;;;;;;;;;;;;;5046319;28;4630;-69
2023/04/13 16:37:41;;;;;;;;;;;;;;;;;;5040306;28;5074;-66
2023/04/13 16:40:09;;;;;;;;;;;;;;;;;;5043436;28;3531;-68
2023/04/13 16:42:34;;;;;;;;;;;;;;;;;;5043668;28;5495;-66
2023/04/13 16:44:59;;;;;;;;;;;;;;;;;;5040989;28;4577;-67
2023/04/13 16:47:24;;;;;;;;;;;;;;;;;;5045883;28;4931;-61
2023/04/13 16:49:50;;;;;;;;;;;;;;;;;;5050570;28;1954;-70
2023/04/13 16:52:15;;;;;;;;;;;;;;;;;;5056165;28;3014;-66
2023/04/13 16:54:43;;;;;;;;;;;;;;;;;;5048015;28;1552;-71
2023/04/13 16:57:08;;;;;;;;;;;;;;;;;;5045876;28;1914;-66